createdAt,value
2018-07-08T00:00:37.990Z,101652.64
2018-07-08T00:02:43.196Z,101650.77
2018-07-08T00:04:48.529Z,101649.06
2018-07-08T00:13:17.879Z,101651.91
2018-07-08T00:15:23.249Z,101656.03
2018-07-08T00:17:29.107Z,101661.09
2018-07-08T00:19:34.395Z,101664.04
2018-07-08T00:21:41.745Z,101659.67
2018-07-08T00:23:46.533Z,101524.27
2018-07-08T00:25:51.836Z,101627.43
2018-07-08T00:27:56.817Z,101652.98
2018-07-08T00:30:02.602Z,101645.37
2018-07-08T00:32:07.623Z,101643.34
2018-07-08T00:34:12.478Z,101647.28
2018-07-08T00:36:17.445Z,101643.84
2018-07-08T00:38:22.393Z,101645.38
2018-07-08T00:40:27.435Z,101643.25
2018-07-08T00:42:40.916Z,101627.02
2018-07-08T00:44:45.792Z,101645.72
2018-07-08T00:46:50.718Z,101645.25
2018-07-08T00:48:56.176Z,101616.26
2018-07-08T00:51:01.862Z,101586.64
2018-07-08T00:53:07.966Z,101654.48
2018-07-08T00:55:13.152Z,101661.30
2018-07-08T00:57:18.479Z,101476.25
2018-07-08T00:59:23.654Z,101653.41
2018-07-08T01:01:28.583Z,101531.08
2018-07-08T01:03:33.725Z,101671.46
2018-07-08T01:05:38.724Z,101659.74
2018-07-08T01:07:43.918Z,101663.69
2018-07-08T01:09:49.296Z,101660.98
2018-07-08T01:11:54.325Z,101662.20
2018-07-08T01:13:59.433Z,101662.80
2018-07-08T01:16:04.825Z,101642.63
2018-07-08T01:18:10.031Z,101666.44
2018-07-08T01:20:15.092Z,101661.20
2018-07-08T01:22:20.796Z,101555.59
2018-07-08T01:24:25.858Z,101656.98
2018-07-08T01:26:31.418Z,101672.36
2018-07-08T01:28:37.010Z,101666.97
2018-07-08T01:30:42.427Z,101666.38
2018-07-08T01:32:47.665Z,101303.05
2018-07-08T01:34:52.720Z,101678.50
2018-07-08T01:36:57.909Z,101637.36
2018-07-08T01:39:03.367Z,101673.70
2018-07-08T01:41:08.599Z,101677.80
2018-07-08T01:43:13.491Z,101640.95
2018-07-08T01:45:18.585Z,101687.85
2018-07-08T01:47:23.638Z,101686.77
2018-07-08T01:49:28.617Z,101683.92
2018-07-08T01:51:33.581Z,101675.95
2018-07-08T01:53:39.128Z,101681.81
2018-07-08T01:55:44.155Z,101676.11
2018-07-08T01:57:49.529Z,101680.91
2018-07-08T01:59:55.098Z,101687.31
2018-07-08T02:02:00.084Z,101693.89
2018-07-08T02:04:04.942Z,101687.30
2018-07-08T02:06:09.858Z,101684.59
2018-07-08T02:08:14.756Z,101695.59
2018-07-08T02:10:19.646Z,101693.77
2018-07-08T02:12:24.647Z,101642.53
2018-07-08T02:14:30.094Z,101702.67
2018-07-08T02:16:35.010Z,101700.56
2018-07-08T02:18:40.425Z,101707.30
2018-07-08T02:20:45.327Z,101708.05
2018-07-08T02:22:50.287Z,101700.84
2018-07-08T02:24:55.373Z,101705.39
2018-07-08T02:27:00.494Z,101707.09
2018-07-08T02:29:05.419Z,101706.68
2018-07-08T02:31:10.338Z,101680.58
2018-07-08T02:33:15.257Z,101710.48
2018-07-08T02:35:20.105Z,101715.23
2018-07-08T02:37:25.865Z,101716.12
2018-07-08T02:39:30.946Z,101711.36
2018-07-08T02:41:35.861Z,101716.25
2018-07-08T02:43:40.982Z,101717.15
2018-07-08T02:45:45.997Z,101721.73
2018-07-08T02:47:50.881Z,101718.45
2018-07-08T02:49:56.116Z,101722.45
2018-07-08T02:52:01.147Z,101721.54
2018-07-08T02:54:05.992Z,101723.00
2018-07-08T02:56:10.879Z,101716.12
2018-07-08T02:58:15.636Z,101715.61
2018-07-08T03:00:20.447Z,101712.55
2018-07-08T03:02:24.886Z,101711.86
2018-07-08T03:04:29.725Z,101711.05
2018-07-08T03:06:34.609Z,101708.42
2018-07-08T03:08:39.511Z,101710.41
2018-07-08T03:10:45.100Z,101709.27
2018-07-08T03:12:49.854Z,101712.98
2018-07-08T03:14:54.746Z,101712.58
2018-07-08T03:16:59.151Z,101710.59
2018-07-08T03:19:04.084Z,101716.13
2018-07-08T03:21:08.906Z,101710.61
2018-07-08T03:23:14.189Z,101714.03
2018-07-08T03:25:18.979Z,101713.37
2018-07-08T03:27:23.732Z,101700.14
2018-07-08T03:29:28.688Z,101711.42
2018-07-08T03:31:33.419Z,101700.15
2018-07-08T03:33:38.154Z,101714.33
2018-07-08T03:35:42.924Z,101715.36
2018-07-08T03:37:47.617Z,101716.02
2018-07-08T03:39:52.411Z,101716.94
2018-07-08T03:41:57.143Z,101717.86
2018-07-08T03:44:01.957Z,101716.59
2018-07-08T03:46:06.852Z,101716.30
2018-07-08T03:48:11.553Z,101722.16
2018-07-08T03:50:16.473Z,101718.84
2018-07-08T03:52:21.450Z,101720.23
2018-07-08T03:54:29.134Z,101725.95
2018-07-08T03:56:34.110Z,101728.06
2018-07-08T03:58:39.077Z,101727.72
2018-07-08T04:00:43.967Z,101732.55
2018-07-08T04:02:48.705Z,101709.06
2018-07-08T04:04:53.461Z,101729.48
2018-07-08T04:06:58.245Z,101701.13
2018-07-08T04:09:03.193Z,101721.32
2018-07-08T04:11:08.897Z,101737.17
2018-07-08T04:13:14.160Z,101729.69
2018-07-08T04:15:19.826Z,101732.06
2018-07-08T04:17:24.870Z,101731.28
2018-07-08T04:19:29.791Z,101689.58
2018-07-08T04:21:34.880Z,101729.03
2018-07-08T04:23:39.967Z,101729.36
2018-07-08T04:25:44.993Z,101733.07
2018-07-08T04:27:49.951Z,101734.34
2018-07-08T04:29:54.756Z,101735.55
2018-07-08T04:31:59.494Z,101739.81
2018-07-08T04:34:04.455Z,101737.31
2018-07-08T04:36:09.354Z,101744.63
2018-07-08T04:38:14.267Z,101749.02
2018-07-08T04:40:19.239Z,101752.03
2018-07-08T04:42:24.073Z,101759.53
2018-07-08T04:44:29.467Z,101706.34
2018-07-08T04:46:34.246Z,101760.27
2018-07-08T04:48:39.217Z,101762.27
2018-07-08T04:50:43.954Z,101767.27
2018-07-08T04:52:48.857Z,101767.25
2018-07-08T04:54:53.705Z,101765.53
2018-07-08T04:56:58.611Z,101744.45
2018-07-08T04:59:03.361Z,101775.41
2018-07-08T05:01:08.255Z,101770.16
2018-07-08T05:03:12.988Z,101777.16
2018-07-08T05:05:17.838Z,101777.71
2018-07-08T05:07:22.721Z,101783.73
2018-07-08T05:09:27.601Z,101786.23
2018-07-08T05:11:32.479Z,101788.08
2018-07-08T05:13:37.551Z,101786.33
2018-07-08T05:15:42.356Z,101777.69
2018-07-08T05:17:47.249Z,101782.74
2018-07-08T05:19:52.923Z,101788.08
2018-07-08T05:21:57.785Z,101787.44
2018-07-08T05:24:02.662Z,101788.49
2018-07-08T05:26:07.551Z,101787.42
2018-07-08T05:28:12.361Z,101783.34
2018-07-08T05:30:17.146Z,101780.09
2018-07-08T05:32:21.989Z,101792.48
2018-07-08T05:34:27.277Z,101794.81
2018-07-08T05:36:32.169Z,101790.54
2018-07-08T05:38:36.910Z,101793.30
2018-07-08T05:40:41.776Z,101798.20
2018-07-08T05:42:46.768Z,101799.39
2018-07-08T05:44:51.800Z,101791.31
2018-07-08T05:46:56.751Z,101798.16
2018-07-08T05:49:02.174Z,101791.89
2018-07-08T05:51:07.216Z,101790.31
2018-07-08T05:53:12.148Z,101790.72
2018-07-08T05:55:17.048Z,101788.36
2018-07-08T05:57:21.892Z,101782.31
2018-07-08T05:59:26.825Z,101780.18
2018-07-08T06:01:31.662Z,101781.83
2018-07-08T06:03:36.561Z,101780.69
2018-07-08T06:05:41.384Z,101777.45
2018-07-08T06:07:46.320Z,101774.54
2018-07-08T06:09:51.271Z,101779.97
2018-07-08T06:11:56.296Z,101778.20
2018-07-08T06:14:01.498Z,101778.34
2018-07-08T06:16:06.559Z,101774.48
2018-07-08T06:18:11.528Z,101776.26
2018-07-08T06:20:16.468Z,101754.75
2018-07-08T06:22:21.457Z,101776.84
2018-07-08T06:24:26.494Z,101772.06
2018-07-08T06:26:31.537Z,101784.51
2018-07-08T06:28:36.554Z,101778.33
2018-07-08T06:30:41.614Z,101739.09
2018-07-08T06:32:46.612Z,101789.80
2018-07-08T06:34:51.698Z,101770.92
2018-07-08T06:36:56.724Z,101788.16
2018-07-08T06:39:01.699Z,101772.67
2018-07-08T06:41:06.878Z,101786.90
2018-07-08T06:43:11.832Z,101785.44
2018-07-08T06:45:16.645Z,101783.09
2018-07-08T06:47:21.676Z,101775.41
2018-07-08T06:49:26.560Z,101784.08
2018-07-08T06:51:33.406Z,101779.86
2018-07-08T06:53:38.482Z,101786.59
2018-07-08T06:55:44.681Z,101778.69
2018-07-08T06:57:49.781Z,101777.45
2018-07-08T06:59:54.843Z,101784.09
2018-07-08T07:02:00.008Z,101783.59
2018-07-08T07:04:11.410Z,101782.37
2018-07-08T07:06:16.475Z,101783.51
2018-07-08T07:08:21.736Z,101784.77
2018-07-08T07:10:27.241Z,101789.09
2018-07-08T07:12:32.578Z,101794.95
2018-07-08T07:14:37.409Z,101791.92
2018-07-08T07:16:42.198Z,101797.67
2018-07-08T07:18:47.142Z,101796.92
2018-07-08T07:20:51.998Z,101800.56
2018-07-08T07:22:56.941Z,101798.56
2018-07-08T07:25:02.421Z,101794.62
2018-07-08T07:27:07.598Z,101795.37
2018-07-08T07:29:12.512Z,101801.27
2018-07-08T07:31:17.549Z,101787.23
2018-07-08T07:33:22.527Z,101791.97
2018-07-08T07:35:27.797Z,101799.53
2018-07-08T07:37:32.809Z,101793.31
2018-07-08T07:39:38.280Z,101742.63
2018-07-08T07:41:43.641Z,101796.71
2018-07-08T07:43:48.604Z,101804.59
2018-07-08T07:45:55.300Z,101805.12
2018-07-08T07:48:00.197Z,101801.25
2018-07-08T07:50:06.512Z,101801.48
2018-07-08T07:52:11.457Z,101787.54
2018-07-08T07:54:16.622Z,101788.17
2018-07-08T07:56:21.740Z,101795.20
2018-07-08T07:58:26.766Z,101791.90
2018-07-08T08:00:31.819Z,101797.20
2018-07-08T08:02:36.894Z,101791.84
2018-07-08T08:04:41.783Z,101800.25
2018-07-08T08:06:46.759Z,101801.44
2018-07-08T08:08:52.491Z,101803.48
2018-07-08T08:10:57.536Z,101805.97
2018-07-08T08:13:02.332Z,101799.48
2018-07-08T08:15:07.858Z,101801.84
2018-07-08T08:17:12.752Z,101807.86
2018-07-08T08:19:17.728Z,101775.81
2018-07-08T08:21:23.903Z,101798.20
2018-07-08T08:23:28.887Z,101795.53
2018-07-08T08:25:33.771Z,101803.89
2018-07-08T08:27:38.608Z,101812.03
2018-07-08T08:29:43.812Z,101810.38
2018-07-08T08:31:48.596Z,101809.08
2018-07-08T08:35:02.238Z,101815.66
2018-07-08T08:37:07.702Z,101814.52
2018-07-08T08:39:13.161Z,101815.34
2018-07-08T08:41:18.361Z,101783.23
2018-07-08T08:43:23.419Z,101816.11
2018-07-08T08:45:29.832Z,101815.03
2018-07-08T08:47:35.530Z,101789.51
2018-07-08T08:49:40.518Z,101816.23
2018-07-08T08:51:45.508Z,101811.47
2018-07-08T08:53:50.481Z,101817.88
2018-07-08T08:56:08.763Z,101801.25
2018-07-08T08:58:13.737Z,101818.31
2018-07-08T09:00:19.645Z,101804.02
2018-07-08T09:02:25.062Z,101817.45
2018-07-08T09:04:30.180Z,101825.44
2018-07-08T09:06:35.334Z,101814.29
2018-07-08T09:08:41.357Z,101817.48
2018-07-08T09:10:46.786Z,101814.05
2018-07-08T09:12:51.910Z,101725.91
2018-07-08T09:14:56.754Z,101823.61
2018-07-08T09:17:01.691Z,101782.09
2018-07-08T09:19:06.661Z,101792.80
2018-07-08T09:21:12.467Z,101821.89
2018-07-08T09:23:17.417Z,101821.67
2018-07-08T09:25:22.438Z,101818.28
2018-07-08T09:27:27.444Z,101817.77
2018-07-08T09:29:32.582Z,101606.58
2018-07-08T09:31:37.879Z,101805.27
2018-07-08T09:33:42.851Z,101808.47
2018-07-08T09:35:49.088Z,101801.81
2018-07-08T09:37:54.116Z,101794.89
2018-07-08T09:39:59.015Z,101810.08
2018-07-08T09:42:03.843Z,101815.48
2018-07-08T09:44:09.350Z,101812.67
2018-07-08T09:46:14.431Z,101813.47
2018-07-08T09:48:19.859Z,101825.12
2018-07-08T09:50:24.812Z,101813.02
2018-07-08T09:52:29.834Z,101811.83
2018-07-08T09:54:37.114Z,101796.76
2018-07-08T09:56:50.398Z,101810.41
2018-07-08T09:58:55.529Z,101812.08
2018-07-08T10:01:03.066Z,101806.51
2018-07-08T10:03:08.198Z,101801.81
2018-07-08T10:05:13.159Z,101801.13
2018-07-08T10:07:18.074Z,101795.24
2018-07-08T10:09:24.079Z,101807.76
2018-07-08T10:11:29.110Z,101796.39
2018-07-08T10:13:34.262Z,101802.63
2018-07-08T10:15:39.085Z,101799.33
2018-07-08T10:17:44.113Z,101795.86
2018-07-08T10:19:49.092Z,101794.66
2018-07-08T10:21:54.955Z,101791.61
2018-07-08T10:23:59.938Z,101798.02
2018-07-08T10:26:04.880Z,101783.47
2018-07-08T10:28:14.148Z,101795.68
2018-07-08T10:30:19.097Z,101793.16
2018-07-08T10:32:24.031Z,101794.80
2018-07-08T10:34:30.814Z,101789.80
2018-07-08T10:36:36.197Z,101794.50
2018-07-08T10:38:41.044Z,101786.28
2018-07-08T10:40:47.031Z,101800.94
2018-07-08T10:42:52.579Z,101802.86
2018-07-08T10:44:57.798Z,101795.79
2018-07-08T10:47:05.013Z,101804.47
2018-07-08T10:49:10.420Z,101804.09
2018-07-08T10:51:15.385Z,101789.02
2018-07-08T10:53:21.288Z,101772.09
2018-07-08T10:55:26.646Z,101781.36
2018-07-08T10:57:31.664Z,101757.63
2018-07-08T10:59:36.980Z,101786.51
2018-07-08T11:01:42.216Z,101789.57
2018-07-08T11:03:47.540Z,101783.59
2018-07-08T11:05:56.283Z,101798.52
2018-07-08T11:08:01.383Z,101789.48
2018-07-08T11:10:08.327Z,101787.22
2018-07-08T11:12:13.325Z,101775.25
2018-07-08T11:14:18.502Z,101784.05
2018-07-08T11:16:24.515Z,101784.08
2018-07-08T11:18:29.813Z,101775.20
2018-07-08T11:20:35.376Z,101776.81
2018-07-08T11:22:40.672Z,101763.59
2018-07-08T11:24:46.110Z,101736.95
2018-07-08T11:26:52.471Z,101764.84
2018-07-08T11:28:58.340Z,101765.13
2018-07-08T11:31:04.109Z,101745.27
2018-07-08T11:33:10.267Z,101754.34
2018-07-08T11:35:15.752Z,101756.53
2018-07-08T11:37:22.109Z,101752.22
2018-07-08T11:39:28.018Z,101758.70
2018-07-08T11:41:34.291Z,101752.64
2018-07-08T11:43:46.037Z,101733.91
2018-07-08T11:45:51.021Z,101716.14
2018-07-08T11:47:56.275Z,101747.92
2018-07-08T11:50:02.035Z,101752.78
2018-07-08T11:52:07.079Z,101761.17
2018-07-08T11:54:16.709Z,101745.40
2018-07-08T11:56:21.877Z,101749.34
2018-07-08T11:58:27.254Z,101736.73
2018-07-08T12:00:39.492Z,101732.90
2018-07-08T12:02:45.048Z,101700.20
2018-07-08T12:04:50.377Z,101711.49
2018-07-08T12:06:55.761Z,101739.41
2018-07-08T12:09:01.178Z,101740.54
2018-07-08T12:11:05.933Z,101732.02
2018-07-08T12:13:10.823Z,101748.67
2018-07-08T12:15:15.851Z,101743.53
2018-07-08T12:17:21.346Z,101705.48
2018-07-08T12:19:26.468Z,101663.99
2018-07-08T12:21:33.199Z,101638.56
2018-07-08T12:23:43.571Z,101725.84
2018-07-08T12:25:51.317Z,101635.27
2018-07-08T12:27:57.025Z,101731.50
2018-07-08T12:30:03.121Z,101728.81
2018-07-08T12:32:08.082Z,101734.34
2018-07-08T12:34:13.143Z,101741.36
2018-07-08T12:36:18.890Z,101741.32
2018-07-08T12:38:23.772Z,101733.19
2018-07-08T12:40:28.531Z,101724.45
2018-07-08T12:42:34.767Z,101551.96
2018-07-08T12:44:40.346Z,101723.85
2018-07-08T12:46:45.680Z,101717.45
2018-07-08T12:48:51.440Z,101727.81
2018-07-08T12:50:57.053Z,101726.16
2018-07-08T12:53:02.300Z,101715.00
2018-07-08T12:55:07.528Z,101717.98
2018-07-08T12:57:12.788Z,101725.66
2018-07-08T12:59:18.163Z,101707.66
2018-07-08T13:01:24.746Z,101709.83
2018-07-08T13:03:30.075Z,101712.17
2018-07-08T13:05:35.022Z,101712.66
2018-07-08T13:07:40.304Z,101720.98
2018-07-08T13:09:47.094Z,101711.98
2018-07-08T13:11:52.082Z,101709.09
2018-07-08T13:13:57.321Z,101692.17
2018-07-08T13:16:02.531Z,101709.47
2018-07-08T13:18:07.555Z,101708.58
2018-07-08T13:20:13.001Z,101712.77
2018-07-08T13:22:23.127Z,101708.36
2018-07-08T13:24:28.962Z,101711.67
2018-07-08T13:26:34.918Z,101698.54
2018-07-08T13:28:40.036Z,101686.77
2018-07-08T13:30:45.809Z,101660.65
2018-07-08T13:32:51.332Z,101695.22
2018-07-08T13:34:57.913Z,101701.63
2018-07-08T13:37:04.000Z,101697.77
2018-07-08T13:39:11.795Z,101688.48
2018-07-08T13:41:17.936Z,101704.08
2018-07-08T13:43:23.002Z,101693.60
2018-07-08T13:45:28.056Z,101684.83
2018-07-08T13:47:32.995Z,101696.33
2018-07-08T13:49:38.235Z,101694.01
2018-07-08T13:51:43.493Z,101696.27
2018-07-08T13:53:48.625Z,101679.33
2018-07-08T13:55:53.682Z,101689.33
2018-07-08T13:57:58.773Z,101701.04
2018-07-08T14:00:04.524Z,101697.09
2018-07-08T14:02:11.027Z,101633.60
2018-07-08T14:04:16.455Z,101685.14
2018-07-08T14:06:22.710Z,101675.52
2018-07-08T14:08:28.252Z,101685.56
2018-07-08T14:10:33.767Z,101683.05
2018-07-08T14:12:38.715Z,101481.00
2018-07-08T14:14:44.253Z,101686.33
2018-07-08T14:16:50.005Z,101658.47
2018-07-08T14:18:55.123Z,101689.02
2018-07-08T14:21:00.621Z,101677.31
2018-07-08T14:23:05.563Z,101654.44
2018-07-08T14:25:10.881Z,101681.37
2018-07-08T14:27:16.613Z,101631.83
2018-07-08T14:29:22.001Z,101677.09
2018-07-08T14:31:27.117Z,101671.28
2018-07-08T14:33:32.329Z,101673.08
2018-07-08T14:35:40.163Z,101469.64
2018-07-08T14:37:45.388Z,101648.08
2018-07-08T14:39:50.830Z,101512.34
2018-07-08T14:41:56.633Z,101639.52
2018-07-08T14:44:02.138Z,101664.97
2018-07-08T14:46:07.536Z,101656.59
2018-07-08T14:48:13.149Z,101655.27
2018-07-08T14:50:18.340Z,101651.38
2018-07-08T14:52:23.559Z,101655.30
2018-07-08T14:54:29.108Z,101649.70
2018-07-08T14:56:34.802Z,101639.20
2018-07-08T14:58:41.019Z,101648.38
2018-07-08T15:00:46.699Z,101480.19
2018-07-08T15:02:52.679Z,101610.17
2018-07-08T15:04:58.258Z,101646.98
2018-07-08T15:07:03.374Z,101644.68
2018-07-08T15:09:14.173Z,101635.16
2018-07-08T15:11:20.269Z,101630.81
2018-07-08T15:13:25.779Z,101647.06
2018-07-08T15:15:31.103Z,101646.61
2018-07-08T15:17:36.762Z,101592.66
2018-07-08T15:19:41.799Z,101640.93
2018-07-08T15:21:47.007Z,101637.05
2018-07-08T15:23:52.245Z,101634.33
2018-07-08T15:25:57.368Z,101643.58
2018-07-08T15:28:04.672Z,101641.00
2018-07-08T15:30:10.077Z,101639.33
2018-07-08T15:32:15.694Z,101644.58
2018-07-08T15:34:21.272Z,101639.75
2018-07-08T15:36:26.451Z,101640.95
2018-07-08T15:38:31.368Z,101616.48
2018-07-08T15:40:37.116Z,101627.00
2018-07-08T15:42:43.355Z,101545.13
2018-07-08T15:44:48.516Z,101641.55
2018-07-08T15:46:53.713Z,101632.33
2018-07-08T15:48:58.770Z,101623.13
2018-07-08T15:51:03.800Z,101627.08
2018-07-08T15:53:09.028Z,101621.42
2018-07-08T15:55:14.921Z,101605.20
2018-07-08T15:57:19.946Z,101622.70
2018-07-08T15:59:24.997Z,101624.45
2018-07-08T16:01:30.069Z,101625.75
2018-07-08T16:03:35.077Z,101625.82
2018-07-08T16:05:40.121Z,101637.63
2018-07-08T16:07:45.202Z,101561.03
2018-07-08T16:09:50.213Z,101623.61
2018-07-08T16:11:55.283Z,101620.98
2018-07-08T16:14:01.419Z,101618.33
2018-07-08T16:16:06.588Z,101613.95
2018-07-08T16:20:08.253Z,101607.38
2018-07-08T16:22:14.650Z,101573.27
2018-07-08T16:24:20.120Z,101622.31
2018-07-08T16:26:25.446Z,101610.92
2018-07-08T16:28:30.647Z,101613.53
2018-07-08T16:30:36.062Z,101594.23
2018-07-08T16:32:41.196Z,101546.10
2018-07-08T16:34:46.802Z,101459.97
2018-07-08T16:36:52.742Z,101602.09
2018-07-08T16:38:58.122Z,101611.73
2018-07-08T16:41:03.123Z,101610.31
2018-07-08T16:43:12.722Z,101603.70
2018-07-08T16:45:19.373Z,101606.44
2018-07-08T16:47:24.964Z,101616.75
2018-07-08T16:49:30.643Z,101606.36
2018-07-08T16:51:36.483Z,101615.67
2018-07-08T16:53:41.886Z,101624.05
2018-07-08T16:55:49.136Z,101622.63
2018-07-08T16:57:55.279Z,101620.77
2018-07-08T17:00:01.804Z,101630.29
2018-07-08T17:02:08.725Z,101633.75
2018-07-08T17:04:14.526Z,101622.98
2018-07-08T17:06:20.345Z,101560.62
2018-07-08T17:08:25.923Z,101604.61
2018-07-08T17:10:33.713Z,101614.14
2018-07-08T17:12:38.916Z,101584.91
2018-07-08T17:14:45.691Z,101603.36
2018-07-08T17:16:52.840Z,101536.00
2018-07-08T17:18:58.156Z,101623.33
2018-07-08T17:21:02.704Z,101621.08
2018-07-08T17:23:09.315Z,101424.34
2018-07-08T17:25:14.449Z,101611.33
2018-07-08T17:27:19.578Z,101613.45
2018-07-08T17:29:25.130Z,101440.70
2018-07-08T17:31:30.933Z,101530.23
2018-07-08T17:33:38.299Z,101603.98
2018-07-08T17:35:44.479Z,101590.57
2018-07-08T17:37:51.263Z,101600.09
2018-07-08T17:39:56.438Z,101582.72
2018-07-08T17:42:01.340Z,101598.45
2018-07-08T17:44:07.163Z,101609.36
2018-07-08T17:46:12.451Z,101517.81
2018-07-08T17:48:18.167Z,101503.58
2018-07-08T17:50:23.380Z,101602.83
2018-07-08T17:52:28.535Z,101601.59
2018-07-08T17:54:33.515Z,101602.97
2018-07-08T17:56:40.487Z,101562.25
2018-07-08T17:58:53.275Z,101597.59
2018-07-08T18:00:58.582Z,101606.26
2018-07-08T18:03:04.596Z,101607.66
2018-07-08T18:05:09.665Z,101593.37
2018-07-08T18:07:15.048Z,101599.06
2018-07-08T18:09:20.452Z,101591.62
2018-07-08T18:11:26.364Z,101609.52
2018-07-08T18:13:31.380Z,101605.61
2018-07-08T18:15:37.830Z,101601.93
2018-07-08T18:17:43.846Z,101601.88
2018-07-08T18:19:50.411Z,101468.67
2018-07-08T18:21:55.504Z,101603.44
2018-07-08T18:24:00.275Z,101608.66
2018-07-08T18:26:05.805Z,101601.28
2018-07-08T18:28:11.376Z,101598.24
2018-07-08T18:30:20.274Z,101476.95
2018-07-08T18:32:27.104Z,101602.16
2018-07-08T18:34:34.290Z,101591.62
2018-07-08T18:36:42.574Z,101602.91
2018-07-08T18:38:47.712Z,101586.52
2018-07-08T18:40:53.311Z,101592.22
2018-07-08T18:42:58.896Z,101590.40
2018-07-08T18:45:04.306Z,101576.05
2018-07-08T18:47:09.523Z,101587.33
2018-07-08T18:49:14.661Z,101591.14
2018-07-08T18:51:20.712Z,101582.55
2018-07-08T18:53:25.976Z,101592.78
2018-07-08T18:55:31.486Z,101588.79
2018-07-08T18:57:38.603Z,101587.05
2018-07-08T18:59:44.472Z,101592.17
2018-07-08T19:01:50.828Z,101593.86
2018-07-08T19:03:56.324Z,101595.59
2018-07-08T19:06:03.638Z,101595.55
2018-07-08T19:08:08.849Z,101602.98
2018-07-08T19:10:13.879Z,101600.83
2018-07-08T19:12:18.937Z,101599.06
2018-07-08T19:14:24.387Z,101599.52
2018-07-08T19:16:30.053Z,101603.54
2018-07-08T19:18:44.892Z,101606.55
2018-07-08T19:20:50.691Z,101606.27
2018-07-08T19:22:56.912Z,101607.47
2018-07-08T19:25:02.927Z,101564.17
2018-07-08T19:27:08.575Z,101590.63
2018-07-08T19:29:15.046Z,101600.76
2018-07-08T19:31:23.821Z,101607.40
2018-07-08T19:33:30.179Z,101608.80
2018-07-08T19:35:49.611Z,101604.66
2018-07-08T19:37:55.656Z,101603.52
2018-07-08T19:40:02.849Z,101602.58
2018-07-08T19:42:08.542Z,101607.16
2018-07-08T19:44:13.736Z,101605.98
2018-07-08T19:46:19.537Z,101609.27
2018-07-08T19:48:24.658Z,101612.19
2018-07-08T19:50:29.881Z,101614.25
2018-07-08T19:52:35.118Z,101617.64
2018-07-08T19:54:40.625Z,101615.12
2018-07-08T19:56:45.770Z,101616.57
2018-07-08T19:58:50.958Z,101604.02
2018-07-08T20:00:56.808Z,101626.52
2018-07-08T20:03:03.665Z,101589.84
2018-07-08T20:05:09.537Z,101629.52
2018-07-08T20:07:16.101Z,101628.92
2018-07-08T20:09:24.188Z,101631.78
2018-07-08T20:11:29.999Z,101633.86
2018-07-08T20:13:36.069Z,101635.39
2018-07-08T20:15:42.232Z,101627.38
2018-07-08T20:17:49.554Z,101633.59
2018-07-08T20:19:55.742Z,101633.27
2018-07-08T20:22:01.458Z,101634.09
2018-07-08T20:24:06.916Z,101635.00
2018-07-08T20:26:11.979Z,101635.22
2018-07-08T20:28:17.045Z,101633.69
2018-07-08T20:30:26.003Z,101630.42
2018-07-08T20:32:31.306Z,101636.14
2018-07-08T20:34:36.604Z,101634.64
2018-07-08T20:36:41.731Z,101640.61
2018-07-08T20:38:46.934Z,101646.25
2018-07-08T20:40:51.866Z,101639.25
2018-07-08T20:42:57.792Z,101639.52
2018-07-08T20:45:02.896Z,101637.91
2018-07-08T20:47:07.977Z,101644.16
2018-07-08T20:49:13.358Z,101643.60
2018-07-08T20:51:18.349Z,101647.88
2018-07-08T20:53:24.241Z,101647.58
2018-07-08T20:55:29.709Z,101646.84
2018-07-08T20:57:35.304Z,101647.52
2018-07-08T20:59:40.674Z,101647.41
2018-07-08T21:01:46.549Z,101454.05
2018-07-08T21:03:54.838Z,101642.80
2018-07-08T21:06:00.904Z,101648.25
2018-07-08T21:08:05.989Z,101642.80
2018-07-08T21:10:11.791Z,101647.01
2018-07-08T21:12:17.115Z,101646.88
2018-07-08T21:14:27.462Z,101637.19
2018-07-08T21:16:33.612Z,101612.34
2018-07-08T21:18:39.898Z,101650.99
2018-07-08T21:20:46.295Z,101641.29
2018-07-08T21:22:51.494Z,101645.88
2018-07-08T21:24:57.173Z,101657.27
2018-07-08T21:27:02.603Z,101656.00
2018-07-08T21:29:08.301Z,101662.39
2018-07-08T21:31:13.803Z,101467.09
2018-07-08T21:33:18.984Z,101651.19
2018-07-08T21:35:24.129Z,101664.31
2018-07-08T21:37:29.680Z,101668.61
2018-07-08T21:39:34.780Z,101663.06
2018-07-08T21:41:40.441Z,101671.45
2018-07-08T21:43:45.521Z,101664.53
2018-07-08T21:45:51.136Z,101666.39
2018-07-08T21:47:56.780Z,101662.37
2018-07-08T21:50:01.896Z,101661.59
2018-07-08T21:52:07.470Z,101659.66
2018-07-08T21:54:12.855Z,101664.87
2018-07-08T21:56:18.413Z,101664.09
2018-07-08T21:58:23.572Z,101608.92
2018-07-08T22:00:32.786Z,101665.30
2018-07-08T22:02:37.885Z,101662.46
2018-07-08T22:04:43.025Z,101508.27
2018-07-08T22:06:48.266Z,101404.57
2018-07-08T22:08:53.965Z,101665.63
2018-07-08T22:10:59.445Z,101649.66
2018-07-08T22:13:04.608Z,101665.56
2018-07-08T22:15:09.740Z,101672.69
2018-07-08T22:17:14.727Z,101608.89
2018-07-08T22:19:19.736Z,101664.16
2018-07-08T22:21:24.657Z,101666.45
2018-07-08T22:23:29.874Z,101668.02
2018-07-08T22:25:35.192Z,101607.38
2018-07-08T22:27:40.469Z,101661.73
2018-07-08T22:29:45.315Z,101666.52
2018-07-08T22:31:50.287Z,101638.67
2018-07-08T22:33:55.267Z,101661.70
2018-07-08T22:36:00.384Z,101664.23
2018-07-08T22:38:05.865Z,101661.28
2018-07-08T22:40:11.333Z,101426.48
2018-07-08T22:42:16.482Z,101429.73
2018-07-08T22:44:21.745Z,101658.59
2018-07-08T22:46:26.935Z,101654.78
2018-07-08T22:48:31.932Z,101515.03
2018-07-08T22:50:37.084Z,101656.05
2018-07-08T22:52:42.412Z,101576.67
2018-07-08T22:54:47.634Z,101651.02
2018-07-08T22:56:53.218Z,101650.00
2018-07-08T22:58:57.987Z,101649.08
2018-07-08T23:01:19.429Z,101650.17
2018-07-08T23:03:57.534Z,101656.59
2018-07-08T23:06:02.339Z,101650.25
2018-07-08T23:08:07.311Z,101656.05
2018-07-08T23:10:12.807Z,101657.55
2018-07-08T23:12:18.055Z,101661.27
2018-07-08T23:14:23.234Z,101637.94
2018-07-08T23:16:29.044Z,101656.45
2018-07-08T23:18:33.832Z,101654.48
2018-07-08T23:20:39.026Z,101665.04
2018-07-08T23:22:55.497Z,101649.70
2018-07-08T23:25:00.531Z,101655.83
2018-07-08T23:27:06.013Z,101572.32
2018-07-08T23:29:10.990Z,101658.65
2018-07-08T23:31:16.306Z,101653.70
2018-07-08T23:33:21.186Z,101657.77
2018-07-08T23:35:26.056Z,101643.36
2018-07-08T23:37:31.369Z,101634.36
2018-07-08T23:39:36.764Z,101409.42
2018-07-08T23:41:42.118Z,101649.94
2018-07-08T23:43:47.050Z,101651.38
2018-07-08T23:45:51.979Z,101660.51
2018-07-08T23:47:56.853Z,101658.56
2018-07-08T23:50:01.838Z,101658.34
2018-07-08T23:52:06.846Z,101658.91
2018-07-08T23:54:11.765Z,101659.67
2018-07-08T23:56:16.757Z,101640.97
2018-07-08T23:58:21.627Z,101660.58
